Pays
Station

 

Conditions  météo  pour  Akurnes  -  Islande    Islande

  
9 °C
    
 
 

METAR pour Akurnes :

BIHN 141900Z 11012KT 9999 VCSH FEW008 BKN019 OVC034 09/07 Q1001

 

Voici le bulletin pour Akurnes - Islande.
 
Le bulletin a été fait il y a 34 heures et 22 minutes, à 19:00 UTC .
Le vent soufflait à la vitesse de 6.2 mètres par seconde de Est/Sud-est (110°).
 
La température était de 9 °C, avec un point de rosée à 7 °C.
La pression atmosphérique était de 1001 hPa.
L'humidité relative était de 87.3%.
 
Il y avait 1 à 2/8ème de nébulosité à une hauteur de 244 mètres et 5 à 7/8ème de nébulosité à une hauteur de 579 mètres. Le ciel était nuageux à partir d'une hauteur de 1036 mètres
 
La visibilité globale était de supérieure à 10 kilomètres.
 
Actuellement averses de à proximité.

 
 
 

Pays :   A   B   C   D   E   F   G   H   I   J   K   L   M   N   O   P   Q   R   S   T   U   V   W   Y   Z

 

Partenaires :  Info Météo avec Met'info
Météo Marine avec MeteoMarine.net
Infos Site  |  Infos Légales  |  Crédits  |  Confidentialité
Contactez-nous  |  Ajouter aux favoris
© 2013-2019 METAR - Tous droits réservés